Ferry Katsuragi — JI3611 — position and weather

sailwx.info

Track history (hours):
 
Tides and Currents Weather Stations Pressure Air Temp Water Temp Dewpoint Dewpoint Depression Visibility Wind Speed Wind Dir Waves Ship Positions

Ferry Katsuragi

Last reported at 2014-Oct-31 19:15 UTC. Time now 2014-Oct-31 20:46 UTC.
Position N 34°05' E 134°44'.

Length 108 m; draft 4 m.

Type: Passenger vessel. MMSI: 431301245.

Date/timePositionNaut miles runAvg speedWind from/ knotsBaromVisibWave heightAir tempDewpointWater temp
2014-Oct-31 19:15N 34°05' E 134°44'1014.0
2014-Oct-31 18:33N 34°09' E 134°55'1212.1
2014-Oct-31 17:34N 34°13' E 135°09'0 0.0
2014-Oct-31 16:34N 34°13' E 135°09'0 0.0
2014-Oct-31 15:34N 34°13' E 135°09'6 5.7
2014-Oct-31 14:33N 34°11' E 135°02'11 3.6
2014-Oct-31 11:26N 34°07' E 134°49'1314.8
2014-Oct-31 10:33N 34°12' E 135°04'4 3.9
2014-Oct-31 09:33N 34°13' E 135°09'11 2.6
2014-Oct-31 05:28N 34°10' E 134°56'1111.8
2014-Oct-31 04:33N 34°13' E 135°09'7 6.7
2014-Oct-31 03:31N 34°12' E 135°00'5 1.5
2014-Oct-31 00:18N 34°09' E 134°55'1114.9
2014-Oct-30 23:33N 34°13' E 135°08'1 1.5
2014-Oct-30 22:33N 34°13' E 135°06'23 7.5
2014-Oct-30 19:32N 34°04' E 134°41'1413.3
2014-Oct-30 18:30N 34°10' E 134°56'1111.6
2014-Oct-30 17:33N 34°13' E 135°09'0 0.0
2014-Oct-30 16:33N 34°13' E 135°09'0 0.0
2014-Oct-30 15:33N 34°13' E 135°09'7 6.8
2014-Oct-30 14:33N 34°11' E 135°01'10 3.2
2014-Oct-30 11:29N 34°08' E 134°49'1415.0
2014-Oct-30 10:33N 34°12' E 135°05'3 2.8
2014-Oct-30 09:33N 34°13' E 135°09'11 2.7
2014-Oct-30 05:30N 34°10' E 134°56'1111.8
2014-Oct-30 04:34N 34°13' E 135°09'6 5.9
2014-Oct-30 03:33N 34°12' E 135°02'6 2.0
2014-Oct-30 00:18N 34°09' E 134°55'1115.4
2014-Oct-29 23:34N 34°13' E 135°08'2 1.7
2014-Oct-29 22:33N 34°13' E 135°06'20 6.3
2014-Oct-29 19:22N 34°05' E 134°43'1213.5
2014-Oct-29 18:30N 34°09' E 134°56'1111.6
2014-Oct-29 17:33N 34°13' E 135°09'0 0.0
2014-Oct-29 16:33N 34°13' E 135°09'0 0.0
2014-Oct-29 15:33N 34°13' E 135°09'6 6.2
2014-Oct-29 14:33N 34°11' E 135°01'12 3.9
2014-Oct-29 11:32N 34°07' E 134°48'1414.7
2014-Oct-29 10:34N 34°12' E 135°04'4 3.6
2014-Oct-29 09:33N 34°13' E 135°09'10 2.4
2014-Oct-29 05:24N 34°10' E 134°57'1011.8
2014-Oct-29 04:33N 34°13' E 135°09'6 6.0
2014-Oct-29 03:33N 34°12' E 135°02'6 1.7
2014-Oct-29 00:17N 34°10' E 134°55'1115.2
2014-Oct-28 23:33N 34°13' E 135°08'1 1.4
2014-Oct-28 22:33N 34°13' E 135°06'18 5.1
2014-Oct-28 19:05N 34°07' E 134°46'814.0
2014-Oct-28 18:31N 34°09' E 134°55'1212.2
2014-Oct-28 17:33N 34°13' E 135°09'0 0.0
2014-Oct-28 16:34N 34°13' E 135°09'0 0.0
2014-Oct-28 15:33N 34°13' E 135°09'6 6.2
2014-Oct-28 14:33N 34°11' E 135°02'12 4.0
2014-Oct-28 11:31N 34°06' E 134°48'1415.1
2014-Oct-28 10:33N 34°12' E 135°04'4 3.9
2014-Oct-28 09:34N 34°13' E 135°09'11 2.7
2014-Oct-28 05:31N 34°09' E 134°56'1111.4
2014-Oct-28 04:33N 34°13' E 135°09'6 6.0
2014-Oct-28 03:33N 34°11' E 135°02'10 3.2
2014-Oct-28 00:30N 34°08' E 134°51'1516.3
2014-Oct-27 23:34N 34°13' E 135°08'2 1.7
2014-Oct-27 22:33N 34°13' E 135°06'21 6.5
2014-Oct-27 19:20N 34°05' E 134°43'1113.8
2014-Oct-27 18:31N 34°09' E 134°55'1212.3
2014-Oct-27 17:34N 34°13' E 135°09'0 0.0
2014-Oct-27 16:34N 34°13' E 135°09'0 0.0
2014-Oct-27 15:33N 34°13' E 135°09'6 6.0
2014-Oct-27 14:33N 34°12' E 135°02'10 3.0
2014-Oct-27 11:21N 34°08' E 134°51'1214.6
2014-Oct-27 10:33N 34°12' E 135°04'4 4.0
2014-Oct-27 09:33N 34°13' E 135°09'12 3.0
2014-Oct-27 05:33N 34°08' E 134°55'1212.1
2014-Oct-27 04:33N 34°13' E 135°09'6 6.4
2014-Oct-27 03:33N 34°11' E 135°01'4 1.1
2014-Oct-27 00:16N 34°10' E 134°57'1014.3
2014-Oct-26 23:33N 34°13' E 135°09'2 2.1
2014-Oct-26 22:33N 34°13' E 135°06'19 5.7
2014-Oct-26 19:15N 34°05' E 134°45'1013.4
2014-Oct-26 18:31N 34°09' E 134°56'1111.4
2014-Oct-26 17:33N 34°13' E 135°09'0 0.0
2014-Oct-26 16:33N 34°13' E 135°09'0 0.0
2014-Oct-26 15:33N 34°13' E 135°09'7 6.7
2014-Oct-26 14:33N 34°12' E 135°01'13 4.2
2014-Oct-26 11:33N 34°07' E 134°47'1515.3
2014-Oct-26 10:33N 34°12' E 135°04'4 3.9
2014-Oct-26 09:33N 34°13' E 135°09'21 6.1
2014-Oct-26 06:09N 34°05' E 134°45'1014.3
2014-Oct-26 05:25N 34°09' E 134°57'1112.3
2014-Oct-26 04:34N 34°13' E 135°09'6 6.3
2014-Oct-26 03:33N 34°12' E 135°01'2 0.5
2014-Oct-26 00:04N 34°12' E 134°59'814.9
2014-Oct-25 23:33N 34°13' E 135°08'2 1.8
2014-Oct-25 22:33N 34°13' E 135°06'18 5.2
2014-Oct-25 19:06N 34°06' E 134°46'814.6
2014-Oct-25 18:34N 34°09' E 134°54'1212.3
2014-Oct-25 17:34N 34°13' E 135°09'0 0.0
2014-Oct-25 16:34N 34°13' E 135°09'0 0.0
2014-Oct-25 15:33N 34°13' E 135°09'6 6.1
2014-Oct-25 14:31N 34°11' E 135°01'2 0.6
2014-Oct-25 10:34N 34°12' E 135°04'4 4.0
2014-Oct-25 09:33N 34°13' E 135°09'20 5.9
2014-Oct-25 06:07N 34°05' E 134°46'914.5
2014-Oct-25 05:32N 34°09' E 134°55'1212.1
2014-Oct-25 04:33N 34°13' E 135°09'7 6.6
2014-Oct-25 03:33N 34°11' E 135°01'6 1.5
2014-Oct-24 23:34N 34°13' E 135°08'2 1.9
2014-Oct-24 22:34N 34°13' E 135°06'22 7.2
2014-Oct-24 19:29N 34°05' E 134°41'1313.6
2014-Oct-24 18:30N 34°09' E 134°56'1111.8
2014-Oct-24 17:33N 34°13' E 135°09'0 0.0
2014-Oct-24 16:33N 34°13' E 135°09'0 0.0
2014-Oct-24 15:33N 34°13' E 135°09'7 6.7
2014-Oct-24 14:33N 34°11' E 135°01'10 3.1
2014-Oct-24 11:26N 34°08' E 134°50'1214.2
2014-Oct-24 10:34N 34°12' E 135°04'4 3.9
2014-Oct-24 09:33N 34°13' E 135°09'9 2.2
2014-Oct-24 05:21N 34°10' E 134°58'912.0
2014-Oct-24 04:34N 34°13' E 135°09'6 5.9
2014-Oct-24 03:33N 34°12' E 135°02'19 7.8
2014-Oct-24 01:08N 34°04' E 134°41'1415.3
2014-Oct-24 00:12N 34°10' E 134°57'1015.3
2014-Oct-23 23:33N 34°13' E 135°08'2 1.9
2014-Oct-23 22:33N 34°13' E 135°06'18 5.3
2014-Oct-23 19:10N 34°06' E 134°46'914.2
2014-Oct-23 18:32N 34°11' E 134°55'1111.6
2014-Oct-23 17:33N 34°13' E 135°09'0 0.0
2014-Oct-23 16:34N 34°13' E 135°09'0 0.0
2014-Oct-23 15:34N 34°13' E 135°09'6 6.1
2014-Oct-23 14:33N 34°11' E 135°02'2 0.6
2014-Oct-23 10:33N 34°12' E 135°04'4 3.8
2014-Oct-23 09:33N 34°13' E 135°09'11 2.8
2014-Oct-23 05:32N 34°08' E 134°56'1111.7
2014-Oct-23 04:33N 34°13' E 135°09'9 7.9
2014-Oct-23 03:24N 34°09' E 134°58'3 0.9
2014-Oct-23 00:19N 34°10' E 134°55'1114.9
2014-Oct-22 23:34N 34°13' E 135°08'2 1.6
2014-Oct-22 22:33N 34°13' E 135°06'21 6.5
2014-Oct-22 19:19N 34°04' E 134°43'1214.3
2014-Oct-22 18:28N 34°09' E 134°56'1112.1
2014-Oct-22 17:33N 34°13' E 135°09'0 0.0
2014-Oct-22 16:33N 34°13' E 135°09'0 0.0
2014-Oct-22 15:33N 34°13' E 135°09'6 6.0
2014-Oct-22 14:33N 34°11' E 135°02'11 3.5
2014-Oct-22 11:27N 34°08' E 134°49'1314.6
2014-Oct-22 10:33N 34°12' E 135°04'4 4.0
2014-Oct-22 09:33N 34°13' E 135°09'21 6.0
2014-Oct-22 06:08N 34°05' E 134°45'1014.4
2014-Oct-22 05:26N 34°09' E 134°57'1012.0
2014-Oct-22 04:34N 34°13' E 135°09'6 6.4
2014-Oct-22 03:33N 34°11' E 135°01'8 2.6
2014-Oct-22 00:30N 34°08' E 134°52'1414.8
2014-Oct-21 23:34N 34°13' E 135°08'2 1.6
2014-Oct-21 22:33N 34°13' E 135°06'  
Track history (hours):
 
Tides and Currents Weather Stations Pressure Air Temp Water Temp Dewpoint Dewpoint Depression Visibility Wind Speed Wind Dir Waves Ship Positions

Ferry Katsuragi

Last reported at 2014-Oct-31 19:15 UTC. Time now 2014-Oct-31 20:46 UTC.
Position N 34°05' E 134°44'.

Length 108 m; draft 4 m.

Type: Passenger vessel. MMSI: 431301245.

Date/timePositionNaut miles runAvg speedWind from/ knotsBaromVisibWave heightAir tempDewpointWater temp
2014-Oct-31 19:15N 34°05' E 134°44'1014.0
2014-Oct-31 18:33N 34°09' E 134°55'1212.1
2014-Oct-31 17:34N 34°13' E 135°09'0 0.0
2014-Oct-31 16:34N 34°13' E 135°09'0 0.0
2014-Oct-31 15:34N 34°13' E 135°09'6 5.7
2014-Oct-31 14:33N 34°11' E 135°02'11 3.6
2014-Oct-31 11:26N 34°07' E 134°49'1314.8
2014-Oct-31 10:33N 34°12' E 135°04'4 3.9
2014-Oct-31 09:33N 34°13' E 135°09'11 2.6
2014-Oct-31 05:28N 34°10' E 134°56'1111.8
2014-Oct-31 04:33N 34°13' E 135°09'7 6.7
2014-Oct-31 03:31N 34°12' E 135°00'5 1.5
2014-Oct-31 00:18N 34°09' E 134°55'1114.9
2014-Oct-30 23:33N 34°13' E 135°08'1 1.5
2014-Oct-30 22:33N 34°13' E 135°06'23 7.5
2014-Oct-30 19:32N 34°04' E 134°41'1413.3
2014-Oct-30 18:30N 34°10' E 134°56'1111.6
2014-Oct-30 17:33N 34°13' E 135°09'0 0.0
2014-Oct-30 16:33N 34°13' E 135°09'0 0.0
2014-Oct-30 15:33N 34°13' E 135°09'7 6.8
2014-Oct-30 14:33N 34°11' E 135°01'10 3.2
2014-Oct-30 11:29N 34°08' E 134°49'1415.0
2014-Oct-30 10:33N 34°12' E 135°05'3 2.8
2014-Oct-30 09:33N 34°13' E 135°09'11 2.7
2014-Oct-30 05:30N 34°10' E 134°56'1111.8
2014-Oct-30 04:34N 34°13' E 135°09'6 5.9
2014-Oct-30 03:33N 34°12' E 135°02'6 2.0
2014-Oct-30 00:18N 34°09' E 134°55'1115.4
2014-Oct-29 23:34N 34°13' E 135°08'2 1.7
2014-Oct-29 22:33N 34°13' E 135°06'20 6.3
2014-Oct-29 19:22N 34°05' E 134°43'1213.5
2014-Oct-29 18:30N 34°09' E 134°56'1111.6
2014-Oct-29 17:33N 34°13' E 135°09'0 0.0
2014-Oct-29 16:33N 34°13' E 135°09'0 0.0
2014-Oct-29 15:33N 34°13' E 135°09'6 6.2
2014-Oct-29 14:33N 34°11' E 135°01'12 3.9
2014-Oct-29 11:32N 34°07' E 134°48'1414.7
2014-Oct-29 10:34N 34°12' E 135°04'4 3.6
2014-Oct-29 09:33N 34°13' E 135°09'10 2.4
2014-Oct-29 05:24N 34°10' E 134°57'1011.8
2014-Oct-29 04:33N 34°13' E 135°09'6 6.0
2014-Oct-29 03:33N 34°12' E 135°02'6 1.7
2014-Oct-29 00:17N 34°10' E 134°55'1115.2
2014-Oct-28 23:33N 34°13' E 135°08'1 1.4
2014-Oct-28 22:33N 34°13' E 135°06'18 5.1
2014-Oct-28 19:05N 34°07' E 134°46'814.0
2014-Oct-28 18:31N 34°09' E 134°55'1212.2
2014-Oct-28 17:33N 34°13' E 135°09'0 0.0
2014-Oct-28 16:34N 34°13' E 135°09'0 0.0
2014-Oct-28 15:33N 34°13' E 135°09'6 6.2
2014-Oct-28 14:33N 34°11' E 135°02'12 4.0
2014-Oct-28 11:31N 34°06' E 134°48'1415.1
2014-Oct-28 10:33N 34°12' E 135°04'4 3.9
2014-Oct-28 09:34N 34°13' E 135°09'11 2.7
2014-Oct-28 05:31N 34°09' E 134°56'1111.4
2014-Oct-28 04:33N 34°13' E 135°09'6 6.0
2014-Oct-28 03:33N 34°11' E 135°02'10 3.2
2014-Oct-28 00:30N 34°08' E 134°51'1516.3
2014-Oct-27 23:34N 34°13' E 135°08'2 1.7
2014-Oct-27 22:33N 34°13' E 135°06'21 6.5
2014-Oct-27 19:20N 34°05' E 134°43'1113.8
2014-Oct-27 18:31N 34°09' E 134°55'1212.3
2014-Oct-27 17:34N 34°13' E 135°09'0 0.0
2014-Oct-27 16:34N 34°13' E 135°09'0 0.0
2014-Oct-27 15:33N 34°13' E 135°09'6 6.0
2014-Oct-27 14:33N 34°12' E 135°02'10 3.0
2014-Oct-27 11:21N 34°08' E 134°51'1214.6
2014-Oct-27 10:33N 34°12' E 135°04'4 4.0
2014-Oct-27 09:33N 34°13' E 135°09'12 3.0
2014-Oct-27 05:33N 34°08' E 134°55'1212.1
2014-Oct-27 04:33N 34°13' E 135°09'6 6.4
2014-Oct-27 03:33N 34°11' E 135°01'4 1.1
2014-Oct-27 00:16N 34°10' E 134°57'1014.3
2014-Oct-26 23:33N 34°13' E 135°09'2 2.1
2014-Oct-26 22:33N 34°13' E 135°06'19 5.7
2014-Oct-26 19:15N 34°05' E 134°45'1013.4
2014-Oct-26 18:31N 34°09' E 134°56'1111.4
2014-Oct-26 17:33N 34°13' E 135°09'0 0.0
2014-Oct-26 16:33N 34°13' E 135°09'0 0.0
2014-Oct-26 15:33N 34°13' E 135°09'7 6.7
2014-Oct-26 14:33N 34°12' E 135°01'13 4.2
2014-Oct-26 11:33N 34°07' E 134°47'1515.3
2014-Oct-26 10:33N 34°12' E 135°04'4 3.9
2014-Oct-26 09:33N 34°13' E 135°09'21 6.1
2014-Oct-26 06:09N 34°05' E 134°45'1014.3
2014-Oct-26 05:25N 34°09' E 134°57'1112.3
2014-Oct-26 04:34N 34°13' E 135°09'6 6.3
2014-Oct-26 03:33N 34°12' E 135°01'2 0.5
2014-Oct-26 00:04N 34°12' E 134°59'814.9
2014-Oct-25 23:33N 34°13' E 135°08'2 1.8
2014-Oct-25 22:33N 34°13' E 135°06'18 5.2
2014-Oct-25 19:06N 34°06' E 134°46'814.6
2014-Oct-25 18:34N 34°09' E 134°54'1212.3
2014-Oct-25 17:34N 34°13' E 135°09'0 0.0
2014-Oct-25 16:34N 34°13' E 135°09'0 0.0
2014-Oct-25 15:33N 34°13' E 135°09'6 6.1
2014-Oct-25 14:31N 34°11' E 135°01'2 0.6
2014-Oct-25 10:34N 34°12' E 135°04'4 4.0
2014-Oct-25 09:33N 34°13' E 135°09'20 5.9
2014-Oct-25 06:07N 34°05' E 134°46'914.5
2014-Oct-25 05:32N 34°09' E 134°55'1212.1
2014-Oct-25 04:33N 34°13' E 135°09'7 6.6
2014-Oct-25 03:33N 34°11' E 135°01'6 1.5
2014-Oct-24 23:34N 34°13' E 135°08'2 1.9
2014-Oct-24 22:34N 34°13' E 135°06'22 7.2
2014-Oct-24 19:29N 34°05' E 134°41'1313.6
2014-Oct-24 18:30N 34°09' E 134°56'1111.8
2014-Oct-24 17:33N 34°13' E 135°09'0 0.0
2014-Oct-24 16:33N 34°13' E 135°09'0 0.0
2014-Oct-24 15:33N 34°13' E 135°09'7 6.7
2014-Oct-24 14:33N 34°11' E 135°01'10 3.1
2014-Oct-24 11:26N 34°08' E 134°50'1214.2
2014-Oct-24 10:34N 34°12' E 135°04'4 3.9
2014-Oct-24 09:33N 34°13' E 135°09'9 2.2
2014-Oct-24 05:21N 34°10' E 134°58'912.0
2014-Oct-24 04:34N 34°13' E 135°09'6 5.9
2014-Oct-24 03:33N 34°12' E 135°02'19 7.8
2014-Oct-24 01:08N 34°04' E 134°41'1415.3
2014-Oct-24 00:12N 34°10' E 134°57'1015.3
2014-Oct-23 23:33N 34°13' E 135°08'2 1.9
2014-Oct-23 22:33N 34°13' E 135°06'18 5.3
2014-Oct-23 19:10N 34°06' E 134°46'914.2
2014-Oct-23 18:32N 34°11' E 134°55'1111.6
2014-Oct-23 17:33N 34°13' E 135°09'0 0.0
2014-Oct-23 16:34N 34°13' E 135°09'0 0.0
2014-Oct-23 15:34N 34°13' E 135°09'6 6.1
2014-Oct-23 14:33N 34°11' E 135°02'2 0.6
2014-Oct-23 10:33N 34°12' E 135°04'4 3.8
2014-Oct-23 09:33N 34°13' E 135°09'11 2.8
2014-Oct-23 05:32N 34°08' E 134°56'1111.7
2014-Oct-23 04:33N 34°13' E 135°09'9 7.9
2014-Oct-23 03:24N 34°09' E 134°58'3 0.9
2014-Oct-23 00:19N 34°10' E 134°55'1114.9
2014-Oct-22 23:34N 34°13' E 135°08'2 1.6
2014-Oct-22 22:33N 34°13' E 135°06'21 6.5
2014-Oct-22 19:19N 34°04' E 134°43'1214.3
2014-Oct-22 18:28N 34°09' E 134°56'1112.1
2014-Oct-22 17:33N 34°13' E 135°09'0 0.0
2014-Oct-22 16:33N 34°13' E 135°09'0 0.0
2014-Oct-22 15:33N 34°13' E 135°09'6 6.0
2014-Oct-22 14:33N 34°11' E 135°02'11 3.5
2014-Oct-22 11:27N 34°08' E 134°49'1314.6
2014-Oct-22 10:33N 34°12' E 135°04'4 4.0
2014-Oct-22 09:33N 34°13' E 135°09'21 6.0
2014-Oct-22 06:08N 34°05' E 134°45'1014.4
2014-Oct-22 05:26N 34°09' E 134°57'1012.0
2014-Oct-22 04:34N 34°13' E 135°09'6 6.4
2014-Oct-22 03:33N 34°11' E 135°01'8 2.6
2014-Oct-22 00:30N 34°08' E 134°52'1414.8
2014-Oct-21 23:34N 34°13' E 135°08'2 1.6
2014-Oct-21 22:33N 34°13' E 135°06'  

Dump ship's entire track history